createdAt,value
2023-02-13T00:01:32.754Z,3.10
2023-02-13T00:04:01.028Z,3.50
2023-02-13T00:06:31.940Z,2.90
2023-02-13T00:09:01.127Z,2.80
2023-02-13T00:11:30.173Z,3.10
2023-02-13T00:13:59.214Z,2.70
2023-02-13T00:16:28.524Z,3.30
2023-02-13T00:19:03.168Z,2.20
2023-02-13T00:21:36.148Z,4.30
2023-02-13T00:24:06.100Z,3.50
2023-02-13T00:26:34.574Z,3.10
2023-02-13T00:29:07.055Z,3.00
2023-02-13T00:31:36.142Z,2.60
2023-02-13T00:34:04.333Z,3.00
2023-02-13T00:36:32.839Z,2.50
2023-02-13T00:39:00.806Z,2.60
2023-02-13T00:41:30.693Z,2.50
2023-02-13T00:43:59.439Z,2.90
2023-02-13T00:46:27.947Z,2.30
2023-02-13T00:48:56.754Z,2.00
2023-02-13T00:51:25.203Z,2.50
2023-02-13T00:53:54.058Z,3.40
2023-02-13T00:56:22.621Z,2.40
2023-02-13T00:58:53.088Z,3.00
2023-02-13T01:01:22.162Z,4.30
2023-02-13T01:03:51.062Z,3.20
2023-02-13T01:06:20.030Z,3.00
2023-02-13T01:08:48.857Z,3.60
2023-02-13T01:11:19.298Z,2.90
2023-02-13T01:13:48.189Z,3.00
2023-02-13T01:16:18.107Z,3.70
2023-02-13T01:18:47.271Z,3.20
2023-02-13T01:21:18.639Z,2.30
2023-02-13T01:23:54.168Z,2.90
2023-02-13T01:26:24.406Z,2.40
2023-02-13T01:28:55.035Z,3.40
2023-02-13T01:31:26.803Z,2.70
2023-02-13T01:33:58.392Z,3.10
2023-02-13T01:36:27.097Z,3.20
2023-02-13T01:38:58.082Z,4.00
2023-02-13T01:41:27.549Z,4.40
2023-02-13T01:44:00.194Z,3.80
2023-02-13T01:46:39.102Z,8.40
2023-02-13T01:49:12.236Z,8.00
2023-02-13T01:51:42.066Z,5.90
2023-02-13T01:54:19.120Z,6.10
2023-02-13T01:56:54.355Z,6.00
2023-02-13T01:59:30.127Z,5.60
2023-02-13T02:01:59.191Z,4.70
2023-02-13T02:04:32.369Z,4.60
2023-02-13T02:07:05.515Z,4.50
2023-02-13T02:09:39.523Z,4.00
2023-02-13T02:12:26.658Z,3.60
2023-02-13T02:15:00.670Z,3.30
2023-02-13T02:17:33.020Z,4.00
2023-02-13T02:20:23.456Z,3.40
2023-02-13T02:23:32.657Z,3.00
2023-02-13T02:26:06.224Z,3.60
2023-02-13T02:29:07.147Z,3.50
2023-02-13T02:31:49.837Z,3.80
2023-02-13T02:34:52.966Z,3.40
2023-02-13T02:39:59.173Z,3.00
2023-02-13T02:42:57.166Z,3.30
2023-02-13T02:45:30.871Z,5.30
2023-02-13T02:48:51.728Z,5.60
2023-02-13T02:51:36.684Z,3.40
2023-02-13T02:54:43.643Z,3.10
2023-02-13T02:57:22.373Z,3.20
2023-02-13T03:00:15.595Z,3.20
2023-02-13T03:03:03.033Z,3.30
2023-02-13T03:06:03.377Z,3.80
2023-02-13T03:08:51.181Z,4.50
2023-02-13T03:11:39.225Z,3.80
2023-02-13T03:14:09.887Z,3.70
2023-02-13T03:16:57.281Z,2.90
2023-02-13T03:20:16.339Z,3.40
2023-02-13T03:23:10.216Z,2.90
2023-02-13T03:26:00.379Z,2.40
2023-02-13T03:28:57.074Z,2.50
2023-02-13T03:31:29.974Z,3.10
2023-02-13T03:34:05.312Z,4.90
2023-02-13T03:37:10.233Z,3.00
2023-02-13T03:39:47.829Z,2.90
2023-02-13T03:42:34.217Z,3.90
2023-02-13T03:45:31.133Z,3.40
2023-02-13T03:48:00.596Z,3.40
2023-02-13T03:50:29.164Z,3.50
2023-02-13T03:53:03.535Z,3.80
2023-02-13T03:55:56.984Z,3.30
2023-02-13T03:58:49.492Z,3.30
2023-02-13T04:01:19.302Z,3.60
2023-02-13T04:04:09.991Z,3.30
2023-02-13T04:06:47.837Z,3.50
2023-02-13T04:09:17.369Z,4.00
2023-02-13T04:11:57.857Z,3.50
2023-02-13T04:14:33.264Z,2.90
2023-02-13T04:17:09.449Z,3.10
2023-02-13T04:19:38.139Z,3.20
2023-02-13T04:22:06.185Z,3.50
2023-02-13T04:24:34.775Z,3.60
2023-02-13T04:27:03.710Z,3.70
2023-02-13T04:29:32.598Z,4.60
2023-02-13T04:32:01.204Z,4.20
2023-02-13T04:34:30.209Z,3.50
2023-02-13T04:36:59.058Z,3.80
2023-02-13T04:39:27.622Z,3.30
2023-02-13T04:41:56.601Z,3.50
2023-02-13T04:44:25.236Z,4.10
2023-02-13T04:46:53.822Z,4.20
2023-02-13T04:49:22.652Z,4.10
2023-02-13T04:51:51.395Z,3.90
2023-02-13T04:54:20.319Z,4.60
2023-02-13T04:56:48.821Z,4.10
2023-02-13T04:59:17.357Z,4.30
2023-02-13T05:01:47.709Z,4.10
2023-02-13T05:04:17.777Z,3.90
2023-02-13T05:06:46.389Z,4.20
2023-02-13T05:09:14.887Z,4.00
2023-02-13T05:11:43.901Z,3.80
2023-02-13T05:14:12.567Z,3.30
2023-02-13T05:16:41.171Z,4.30
2023-02-13T05:19:10.419Z,3.80
2023-02-13T05:21:58.494Z,3.70
2023-02-13T05:24:26.941Z,4.30
2023-02-13T05:26:55.693Z,4.30
2023-02-13T05:29:24.241Z,4.70
2023-02-13T05:31:54.424Z,3.90
2023-02-13T05:34:24.361Z,4.80
2023-02-13T05:36:53.462Z,5.90
2023-02-13T05:39:21.994Z,6.90
2023-02-13T05:41:50.696Z,4.70
2023-02-13T05:44:19.526Z,5.20
2023-02-13T05:46:49.648Z,3.90
2023-02-13T05:51:49.094Z,4.60
2023-02-13T05:54:17.721Z,4.30
2023-02-13T05:56:47.108Z,5.90
2023-02-13T05:59:16.146Z,4.10
2023-02-13T06:01:45.140Z,4.10
2023-02-13T06:04:13.987Z,4.60
2023-02-13T06:06:43.111Z,4.40
2023-02-13T06:09:11.901Z,3.60
2023-02-13T06:11:42.855Z,3.90
2023-02-13T06:14:11.837Z,4.10
2023-02-13T06:16:44.170Z,4.40
2023-02-13T06:19:12.846Z,3.90
2023-02-13T06:21:41.628Z,4.50
2023-02-13T06:24:10.597Z,4.30
2023-02-13T06:26:39.710Z,4.50
2023-02-13T06:29:09.568Z,5.90
2023-02-13T06:31:38.424Z,5.60
2023-02-13T06:34:08.339Z,5.10
2023-02-13T06:36:38.693Z,5.60
2023-02-13T06:39:07.314Z,6.50
2023-02-13T06:41:36.637Z,6.40
2023-02-13T06:44:08.139Z,6.80
2023-02-13T06:46:37.446Z,6.10
2023-02-13T06:49:10.704Z,6.30
2023-02-13T06:51:40.883Z,5.60
2023-02-13T06:54:14.257Z,5.40
2023-02-13T06:56:43.041Z,5.20
2023-02-13T06:59:11.635Z,5.70
2023-02-13T07:01:40.700Z,3.60
2023-02-13T07:04:09.434Z,6.00
2023-02-13T07:06:39.655Z,4.50
2023-02-13T07:09:08.223Z,5.30
2023-02-13T07:11:37.773Z,5.30
2023-02-13T07:14:07.975Z,5.90
2023-02-13T07:16:39.815Z,6.00
2023-02-13T07:19:08.956Z,5.60
2023-02-13T07:21:38.386Z,4.70
2023-02-13T07:24:08.237Z,5.70
2023-02-13T07:26:37.108Z,3.30
2023-02-13T07:29:11.584Z,4.80
2023-02-13T07:31:40.924Z,5.30
2023-02-13T07:34:09.648Z,4.00
2023-02-13T07:36:38.423Z,4.60
2023-02-13T07:39:08.823Z,4.30
2023-02-13T07:41:38.181Z,2.90
2023-02-13T07:44:09.192Z,4.30
2023-02-13T07:46:38.288Z,4.40
2023-02-13T07:49:07.108Z,5.10
2023-02-13T07:51:35.978Z,4.30
2023-02-13T07:54:05.061Z,4.00
2023-02-13T07:56:35.106Z,5.40
2023-02-13T07:59:03.744Z,4.50
2023-02-13T08:01:33.447Z,5.60
2023-02-13T08:04:02.116Z,4.80
2023-02-13T08:06:31.154Z,5.70
2023-02-13T08:09:18.295Z,4.70
2023-02-13T08:11:56.692Z,4.90
2023-02-13T08:14:26.507Z,4.60
2023-02-13T08:16:56.805Z,4.90
2023-02-13T08:19:25.587Z,4.10
2023-02-13T08:21:54.318Z,3.50
2023-02-13T08:24:23.337Z,3.60
2023-02-13T08:26:53.182Z,4.20
2023-02-13T08:29:21.686Z,3.60
2023-02-13T08:31:50.264Z,3.70
2023-02-13T08:34:19.390Z,3.00
2023-02-13T08:36:47.973Z,3.60
2023-02-13T08:39:16.502Z,3.30
2023-02-13T08:41:45.213Z,3.60
2023-02-13T08:44:16.502Z,3.20
2023-02-13T08:46:48.950Z,3.40
2023-02-13T08:49:18.032Z,3.80
2023-02-13T08:51:46.497Z,3.00
2023-02-13T08:54:15.417Z,4.50
2023-02-13T08:56:45.012Z,3.50
2023-02-13T08:59:14.109Z,3.20
2023-02-13T09:01:42.912Z,3.20
2023-02-13T09:04:11.600Z,4.20
2023-02-13T09:06:40.595Z,2.90
2023-02-13T09:09:09.091Z,3.50
2023-02-13T09:11:37.717Z,3.30
2023-02-13T09:14:07.140Z,3.20
2023-02-13T09:16:37.095Z,3.20
2023-02-13T09:19:05.965Z,3.20
2023-02-13T09:21:35.106Z,3.60
2023-02-13T09:24:08.112Z,3.30
2023-02-13T09:26:40.112Z,2.80
2023-02-13T09:29:08.803Z,3.00
2023-02-13T09:31:39.642Z,3.10
2023-02-13T09:34:08.875Z,2.60
2023-02-13T09:36:37.550Z,2.90
2023-02-13T09:39:06.467Z,3.50
2023-02-13T09:41:38.097Z,3.40
2023-02-13T09:44:12.563Z,3.60
2023-02-13T09:46:41.386Z,2.70
2023-02-13T09:49:15.667Z,3.10
2023-02-13T09:51:44.578Z,3.50
2023-02-13T09:54:16.101Z,3.40
2023-02-13T09:56:50.243Z,2.90
2023-02-13T09:59:37.800Z,3.60
2023-02-13T10:02:42.186Z,5.00
2023-02-13T10:05:23.257Z,4.80
2023-02-13T10:08:14.681Z,4.60
2023-02-13T10:11:20.776Z,4.10
2023-02-13T10:14:01.914Z,3.50
2023-02-13T10:16:33.283Z,3.80
2023-02-13T10:19:14.381Z,4.80
2023-02-13T10:21:53.234Z,3.50
2023-02-13T10:24:27.964Z,3.50
2023-02-13T10:26:56.970Z,4.00
2023-02-13T10:30:09.721Z,5.00
2023-02-13T10:32:50.132Z,4.60
2023-02-13T10:35:23.847Z,4.40
2023-02-13T10:37:54.878Z,4.60
2023-02-13T10:40:28.431Z,5.30
2023-02-13T10:43:19.043Z,4.40
2023-02-13T10:46:03.944Z,5.10
2023-02-13T10:48:39.390Z,5.00
2023-02-13T10:51:40.656Z,4.20
2023-02-13T10:54:32.340Z,4.70
2023-02-13T10:57:13.953Z,4.10
2023-02-13T11:00:03.100Z,4.00
2023-02-13T11:02:34.955Z,3.10
2023-02-13T11:05:21.812Z,4.30
2023-02-13T11:07:51.538Z,3.70
2023-02-13T11:10:23.061Z,3.40
2023-02-13T11:12:52.045Z,3.80
2023-02-13T11:15:32.049Z,3.20
2023-02-13T11:18:04.007Z,3.00
2023-02-13T11:20:38.582Z,2.40
2023-02-13T11:23:17.750Z,3.50
2023-02-13T11:26:13.966Z,3.40
2023-02-13T11:28:53.122Z,2.90
2023-02-13T11:31:26.682Z,3.60
2023-02-13T11:33:58.652Z,4.10
2023-02-13T11:36:33.113Z,3.70
2023-02-13T11:39:06.467Z,3.00
2023-02-13T11:41:42.643Z,3.30
2023-02-13T11:44:28.635Z,3.40
2023-02-13T11:46:59.113Z,3.50
2023-02-13T11:49:35.247Z,3.20
2023-02-13T11:52:11.572Z,3.30
2023-02-13T11:54:44.134Z,3.10
2023-02-13T11:57:20.388Z,5.20
2023-02-13T11:59:50.903Z,3.50
2023-02-13T12:02:23.667Z,3.70
2023-02-13T12:05:13.585Z,3.50
2023-02-13T12:07:43.553Z,2.60
2023-02-13T12:10:15.373Z,3.40
2023-02-13T12:13:06.610Z,3.70
2023-02-13T12:15:36.233Z,3.30
2023-02-13T12:18:07.413Z,3.10
2023-02-13T12:21:01.266Z,3.90
2023-02-13T12:23:54.626Z,3.40
2023-02-13T12:26:39.667Z,2.50
2023-02-13T12:29:35.011Z,2.90
2023-02-13T12:32:14.214Z,3.20
2023-02-13T12:35:08.252Z,3.30
2023-02-13T12:37:42.965Z,2.90
2023-02-13T12:40:21.286Z,2.30
2023-02-13T12:43:23.399Z,2.70
2023-02-13T12:46:00.549Z,3.10
2023-02-13T12:48:35.720Z,3.40
2023-02-13T12:51:58.673Z,3.80
2023-02-13T12:57:23.925Z,3.10
2023-02-13T13:00:08.443Z,2.70
2023-02-13T13:02:51.483Z,2.30
2023-02-13T13:06:10.885Z,2.80
2023-02-13T13:09:00.319Z,2.60
2023-02-13T13:11:44.529Z,2.30
2023-02-13T13:14:51.170Z,2.90
2023-02-13T13:17:27.010Z,3.70
2023-02-13T13:20:14.779Z,3.00
2023-02-13T13:23:23.797Z,3.50
2023-02-13T13:25:56.054Z,4.20
2023-02-13T13:28:46.048Z,3.40
2023-02-13T13:31:15.173Z,4.20
2023-02-13T13:33:49.789Z,4.20
2023-02-13T13:36:36.876Z,5.00
2023-02-13T13:39:12.407Z,5.80
2023-02-13T13:41:45.868Z,4.90
2023-02-13T13:44:22.391Z,4.20
2023-02-13T13:47:09.821Z,5.50
2023-02-13T13:49:55.480Z,5.80
2023-02-13T13:52:23.975Z,4.50
2023-02-13T13:54:54.949Z,5.20
2023-02-13T13:57:25.022Z,5.60
2023-02-13T14:00:02.376Z,5.50
2023-02-13T14:02:40.296Z,4.90
2023-02-13T14:05:19.990Z,5.40
2023-02-13T14:07:57.464Z,4.70
2023-02-13T14:10:26.622Z,4.80
2023-02-13T14:12:55.614Z,5.00
2023-02-13T14:15:39.747Z,4.60
2023-02-13T14:18:12.268Z,5.00
2023-02-13T14:20:51.293Z,4.70
2023-02-13T14:24:20.641Z,3.90
2023-02-13T14:26:57.891Z,4.00
2023-02-13T14:29:34.612Z,4.50
2023-02-13T14:32:08.794Z,4.20
2023-02-13T14:34:42.564Z,4.60
2023-02-13T14:37:11.283Z,4.30
2023-02-13T14:39:42.372Z,4.50
2023-02-13T14:42:27.461Z,3.80
2023-02-13T14:45:00.578Z,3.80
2023-02-13T14:47:35.976Z,4.00
2023-02-13T14:50:05.564Z,4.50
2023-02-13T14:52:35.973Z,4.40
2023-02-13T14:55:09.591Z,4.00
2023-02-13T14:57:47.365Z,3.80
2023-02-13T15:00:32.337Z,4.60
2023-02-13T15:03:08.704Z,5.20
2023-02-13T15:05:38.565Z,4.50
2023-02-13T15:08:17.347Z,4.60
2023-02-13T15:10:52.808Z,4.30
2023-02-13T15:13:29.189Z,4.60
2023-02-13T15:16:01.884Z,4.50
2023-02-13T15:18:34.697Z,4.30
2023-02-13T15:21:04.347Z,4.80
2023-02-13T15:23:33.719Z,5.20
2023-02-13T15:26:06.249Z,5.60
2023-02-13T15:28:36.322Z,4.80
2023-02-13T15:31:07.273Z,5.30
2023-02-13T15:33:45.796Z,6.00
2023-02-13T15:36:19.326Z,5.70
2023-02-13T15:38:48.471Z,5.20
2023-02-13T15:41:23.391Z,5.60
2023-02-13T15:43:58.702Z,5.20
2023-02-13T15:46:34.035Z,5.00
2023-02-13T15:49:16.057Z,5.00
2023-02-13T15:51:45.863Z,4.90
2023-02-13T15:54:26.644Z,5.60
2023-02-13T15:56:58.147Z,5.00
2023-02-13T15:59:32.069Z,5.10
2023-02-13T16:02:00.904Z,4.80
2023-02-13T16:04:30.592Z,4.90
2023-02-13T16:07:19.279Z,5.40
2023-02-13T16:09:48.371Z,5.10
2023-02-13T16:12:35.869Z,6.20
2023-02-13T16:15:04.818Z,5.20
2023-02-13T16:17:35.699Z,4.70
2023-02-13T16:20:06.945Z,6.20
2023-02-13T16:22:38.168Z,5.20
2023-02-13T16:25:13.280Z,7.50
2023-02-13T16:27:48.352Z,5.20
2023-02-13T16:30:37.789Z,6.20
2023-02-13T16:33:17.957Z,5.60
2023-02-13T16:35:49.377Z,6.70
2023-02-13T16:38:48.566Z,5.80
2023-02-13T16:41:28.973Z,6.40
2023-02-13T16:44:07.223Z,6.30
2023-02-13T16:46:36.247Z,6.50
2023-02-13T16:49:08.636Z,7.20
2023-02-13T16:52:12.584Z,6.40
2023-02-13T16:54:48.212Z,6.60
2023-02-13T16:57:24.297Z,5.80
2023-02-13T17:00:06.381Z,5.80
2023-02-13T17:02:40.139Z,6.30
2023-02-13T17:05:09.052Z,5.80
2023-02-13T17:07:45.234Z,6.40
2023-02-13T17:10:23.051Z,7.80
2023-02-13T17:12:52.054Z,7.50
2023-02-13T17:15:22.949Z,7.30
2023-02-13T17:17:51.958Z,6.80
2023-02-13T17:20:23.195Z,7.20
2023-02-13T17:22:53.624Z,8.10
2023-02-13T17:25:24.650Z,8.70
2023-02-13T17:28:09.516Z,7.60
2023-02-13T17:30:41.028Z,9.10
2023-02-13T17:33:21.586Z,8.80
2023-02-13T17:35:50.815Z,8.50
2023-02-13T17:38:20.225Z,10.50
2023-02-13T17:40:49.760Z,9.30
2023-02-13T17:43:19.005Z,10.40
2023-02-13T17:45:47.648Z,11.10
2023-02-13T17:48:17.376Z,9.30
2023-02-13T17:50:45.868Z,11.20
2023-02-13T17:53:24.710Z,10.70
2023-02-13T17:55:57.373Z,11.10
2023-02-13T17:58:26.262Z,10.10
2023-02-13T18:00:57.725Z,11.40
2023-02-13T18:03:26.583Z,11.70
2023-02-13T18:05:58.016Z,11.80
2023-02-13T18:08:26.917Z,12.00
2023-02-13T18:10:57.025Z,12.80
2023-02-13T18:13:26.301Z,14.30
2023-02-13T18:15:55.092Z,12.20
2023-02-13T18:18:24.136Z,12.30
2023-02-13T18:20:57.732Z,11.80
2023-02-13T18:23:27.067Z,12.10
2023-02-13T18:26:06.122Z,13.20
2023-02-13T18:28:36.642Z,11.40
2023-02-13T18:31:05.929Z,12.10
2023-02-13T18:33:36.088Z,12.00
2023-02-13T18:36:05.403Z,11.60
2023-02-13T18:38:34.229Z,9.70
2023-02-13T18:41:03.936Z,10.30
2023-02-13T18:43:32.873Z,11.30
2023-02-13T18:46:01.880Z,11.80
2023-02-13T18:48:35.814Z,11.60
2023-02-13T18:51:05.501Z,12.50
2023-02-13T18:53:34.460Z,10.70
2023-02-13T18:56:05.067Z,12.00
2023-02-13T18:58:34.586Z,12.90
2023-02-13T19:01:12.683Z,12.00
2023-02-13T19:03:41.712Z,11.40
2023-02-13T19:06:11.797Z,11.70
2023-02-13T19:08:40.674Z,11.50
2023-02-13T19:11:16.831Z,12.70
2023-02-13T19:13:45.653Z,12.60
2023-02-13T19:16:16.540Z,11.90
2023-02-13T19:18:53.369Z,11.10
2023-02-13T19:21:30.542Z,11.60
2023-02-13T19:24:01.754Z,11.30
2023-02-13T19:26:30.974Z,11.80
2023-02-13T19:29:00.341Z,13.80
2023-02-13T19:31:31.257Z,11.70
2023-02-13T19:34:03.208Z,13.40
2023-02-13T19:36:32.341Z,12.30
2023-02-13T19:39:04.141Z,11.20
2023-02-13T19:41:33.276Z,11.00
2023-02-13T19:44:02.848Z,11.70
2023-02-13T19:46:32.372Z,12.10
2023-02-13T19:49:01.779Z,11.90
2023-02-13T19:51:32.030Z,12.90
2023-02-13T19:54:06.856Z,13.30
2023-02-13T19:56:37.465Z,12.10
2023-02-13T19:59:07.580Z,13.50
2023-02-13T20:01:37.033Z,11.80
2023-02-13T20:04:06.470Z,14.40
2023-02-13T20:06:36.660Z,13.60
2023-02-13T20:09:12.494Z,11.90
2023-02-13T20:11:41.612Z,13.30
2023-02-13T20:14:15.264Z,12.70
2023-02-13T20:16:46.581Z,12.20
2023-02-13T20:19:16.572Z,12.20
2023-02-13T20:21:46.134Z,13.40
2023-02-13T20:24:14.823Z,13.60
2023-02-13T20:26:43.846Z,14.30
2023-02-13T20:29:13.393Z,14.70
2023-02-13T20:31:42.532Z,13.60
2023-02-13T20:34:12.035Z,14.50
2023-02-13T20:36:44.020Z,13.90
2023-02-13T20:39:13.129Z,13.10
2023-02-13T20:41:42.226Z,13.50
2023-02-13T20:44:12.258Z,13.70
2023-02-13T20:46:41.792Z,13.20
2023-02-13T20:49:11.129Z,13.00
2023-02-13T20:51:40.266Z,13.30
2023-02-13T20:54:10.183Z,12.10
2023-02-13T20:56:40.257Z,11.10
2023-02-13T20:59:09.568Z,11.60
2023-02-13T21:01:41.628Z,12.80
2023-02-13T21:04:13.871Z,11.90
2023-02-13T21:06:42.411Z,11.10
2023-02-13T21:09:11.551Z,11.70
2023-02-13T21:11:42.821Z,11.00
2023-02-13T21:14:12.205Z,10.70
2023-02-13T21:16:41.584Z,11.40
2023-02-13T21:19:17.387Z,9.90
2023-02-13T21:21:46.266Z,10.30
2023-02-13T21:24:17.301Z,10.60
2023-02-13T21:26:46.826Z,9.60
2023-02-13T21:29:15.691Z,10.70
2023-02-13T21:31:49.272Z,11.10
2023-02-13T21:34:18.291Z,10.50
2023-02-13T21:39:18.877Z,10.10
2023-02-13T21:41:47.754Z,10.60
2023-02-13T21:44:16.781Z,11.50
2023-02-13T21:46:45.946Z,12.70
2023-02-13T21:49:16.928Z,12.50
2023-02-13T21:51:46.264Z,10.30
2023-02-13T21:54:34.383Z,11.00
2023-02-13T21:57:04.144Z,11.00
2023-02-13T21:59:33.323Z,11.10
2023-02-13T22:02:03.006Z,10.40
2023-02-13T22:04:31.874Z,11.10
2023-02-13T22:07:00.499Z,11.70
2023-02-13T22:09:29.581Z,11.00
2023-02-13T22:11:58.377Z,10.10
2023-02-13T22:14:27.016Z,10.80
2023-02-13T22:16:56.082Z,9.90
2023-02-13T22:19:26.409Z,10.00
2023-02-13T22:21:55.169Z,9.40
2023-02-13T22:24:23.997Z,9.70
2023-02-13T22:26:52.783Z,8.40
2023-02-13T22:29:23.185Z,8.80
2023-02-13T22:31:54.703Z,9.30
2023-02-13T22:34:22.825Z,9.30
2023-02-13T22:36:51.007Z,8.90
2023-02-13T22:39:19.701Z,9.60
2023-02-13T22:41:50.155Z,8.00
2023-02-13T22:44:18.893Z,8.70
2023-02-13T22:46:48.004Z,11.10
2023-02-13T22:49:16.764Z,9.70
2023-02-13T22:51:45.817Z,9.90
2023-02-13T22:54:14.513Z,9.00
2023-02-13T22:56:42.861Z,8.60
2023-02-13T22:59:14.238Z,9.50
2023-02-13T23:01:44.336Z,9.50
2023-02-13T23:04:13.088Z,8.60
2023-02-13T23:06:43.182Z,10.20
2023-02-13T23:09:11.995Z,9.00
2023-02-13T23:11:59.135Z,7.70
2023-02-13T23:14:28.216Z,10.70
2023-02-13T23:17:15.955Z,10.60
2023-02-13T23:19:45.867Z,10.90
2023-02-13T23:22:16.508Z,11.70
2023-02-13T23:24:45.120Z,9.60
2023-02-13T23:27:14.014Z,10.30
2023-02-13T23:29:42.693Z,9.50
2023-02-13T23:32:15.785Z,9.80
2023-02-13T23:34:44.204Z,10.20
2023-02-13T23:37:12.680Z,9.90
2023-02-13T23:39:43.783Z,8.90
2023-02-13T23:42:12.040Z,9.80
2023-02-13T23:44:40.044Z,9.00
2023-02-13T23:47:08.094Z,10.90
2023-02-13T23:49:36.558Z,9.30
2023-02-13T23:52:05.166Z,9.20
2023-02-13T23:54:33.800Z,11.10
2023-02-13T23:57:04.040Z,10.60
2023-02-13T23:59:33.783Z,10.70
